• Join FlightAware (Why Join?)
  • Login
  • US Flag 
07:17AM EDT


 

Airport Tracker/Info


-or-


 

Live Flight TrackerFlight Track Log ✈ ASQ4179 ✈ 02-Jul-2013 ✈ KCLT - KIAH

Flight Track Log - Related Links

Times and Time Zones

All times are in EDT time to prevent confusion due to time zone crossing. See the ASQ4179 flight status page for this flight to view local times or setup timezone preferences in your user account.

Time Position Orientation Groundspeed Altitude Reporting Facility
EDT Latitude Longitude Course Direction KTS MPH feet Rate Location/Type
02:29PM 35.1911 -80.9508 251° West 165 190 1,600  Level Atlanta Center
02:30PM 35.1536 -80.9522 182° South 177 204 3,100 2,280 Climbing Atlanta Center
02:31PM 35.1086 -80.9869 212° Southwest 233 268 5,800 2,460 Climbing Atlanta Center
02:32PM 35.1222 -81.0347 289° West 265 305 6,900 2,220 Climbing Atlanta Center
02:33PM 35.2189 -81.2371 199° South  Level FlightAware Approximate
02:33PM 35.1936 -81.0475 352° North 310 357 9,200  Level Atlanta Center
02:34PM 35.1247 -81.2730 192° South  Level FlightAware Approximate
02:34PM 35.2728 -81.0469 360° North 300 345 11,100  Level Atlanta Center
02:35PM 35.0647 -81.3486 251° West  Level FlightAware Approximate
02:35PM 35.3583 -81.0492 359° North 294 338 12,300  Level Atlanta Center
02:36PM 35.4500 -81.0331 North 311 358 13,500 1,020 Climbing Atlanta Center
02:37PM 35.5422 -81.0525 350° North 329 379 14,400 960 Climbing Atlanta Center
02:38PM 35.5819 -81.1508 296° West 313 360 15,500 1,320 Climbing Atlanta Center
02:39PM 35.5086 -81.2197 217° Southwest 259 298 17,100 1,140 Climbing Atlanta Center
02:40PM 35.4319 -81.2453 195° South 251 289 17,800 720 Climbing Atlanta Center
02:41PM 35.3542 -81.3089 214° Southwest 310 357 18,600 720 Climbing Atlanta Center
02:42PM 35.2850 -81.3900 224° Southwest 345 397 19,300 660 Climbing Atlanta Center
02:43PM 35.2139 -81.4789 226° Southwest 365 420 20,000 720 Climbing Atlanta Center
02:44PM 35.1383 -81.5650 223° Southwest 370 426 20,800 840 Climbing Atlanta Center
02:45PM 35.0589 -81.6614 225° Southwest 370 426 21,700 840 Climbing Atlanta Center
02:46PM 34.9833 -81.7469 223° Southwest 370 426 22,500 840 Climbing Atlanta Center
02:47PM 34.9119 -81.8403 227° Southwest 370 426 23,400 780 Climbing Atlanta Center
02:48PM 34.8675 -81.9250 237° Southwest 372 428 24,100 780 Climbing Atlanta Center
02:49PM 34.8047 -82.0303 234° Southwest 372 428 25,000 900 Climbing Atlanta Center
02:50PM 34.7397 -82.1431 235° Southwest 372 428 25,900 840 Climbing Atlanta Center
02:51PM 34.6828 -82.2453 236° Southwest 372 428 26,700 780 Climbing Atlanta Center
02:52PM 34.6258 -82.3450 235° Southwest 372 428 27,500 780 Climbing Atlanta Center
02:53PM 34.5686 -82.4469 236° Southwest 372 428 28,300 840 Climbing Atlanta Center
02:54PM 34.5114 -82.5464 235° Southwest 372 428 29,200 960 Climbing Atlanta Center
02:55PM 34.4522 -82.6458 234° Southwest 367 422 30,300 1,020 Climbing Atlanta Center
02:56PM 34.4008 -82.7347 235° Southwest 361 415 31,300 1,020 Climbing Atlanta Center
02:57PM 34.3478 -82.8311 236° Southwest 361 415 32,400 900 Climbing Atlanta Center
02:58PM 34.2922 -82.9275 235° Southwest 361 415 33,200 660 Climbing Atlanta Center
02:59PM 34.2347 -83.0236 234° Southwest 361 415 33,800 480 Climbing Atlanta Center
03:00PM 34.1769 -83.1222 235° Southwest 361 415 34,200 540 Climbing Atlanta Center
03:01PM 34.1192 -83.2233 235° Southwest 372 428 34,900 720 Climbing Atlanta Center
03:02PM 34.0572 -83.3267 234° Southwest 372 428 35,700 540 Climbing Atlanta Center
03:03PM 33.9911 -83.4350 234° Southwest 377 434 36,000 120 Climbing Atlanta Center
03:04PM 33.9289 -83.5431 235° Southwest 377 434 36,000  Level Atlanta Center
03:05PM 33.8647 -83.6511 234° Southwest 393 452 36,000  Level Atlanta Center
03:06PM 33.7961 -83.7614 233° Southwest 403 464 36,000  Level Atlanta Center
03:07PM 33.7336 -83.8689 235° Southwest 404 465 36,000  Level Atlanta Center
03:08PM 33.6689 -83.9764 234° Southwest 404 465 36,000  Level Atlanta Center
03:09PM 33.6042 -84.0861 235° Southwest 404 465 36,000  Level Atlanta Center
03:10PM 33.5458 -84.1808 234° Southwest 404 465 36,000  Level Atlanta Center
03:11PM 33.4808 -84.2878 234° Southwest 404 465 36,000  Level Atlanta Center
03:12PM 33.4181 -84.3947 235° Southwest 404 465 36,000  Level Atlanta Center
03:13PM 33.3531 -84.5014 234° Southwest 404 465 36,000  Level Atlanta Center
03:14PM 33.2836 -84.6153 234° Southwest 404 465 36,000  Level Atlanta Center
03:15PM 33.2206 -84.7217 235° Southwest 399 459 36,000  Level Atlanta Center
03:16PM 33.1572 -84.8278 235° Southwest 399 459 36,000  Level Atlanta Center
03:17PM 33.0917 -84.9314 233° Southwest 399 459 36,000  Level Atlanta Center
03:18PM 33.0306 -85.0350 235° Southwest 399 459 36,000  Level Atlanta Center
03:19PM 32.9647 -85.1406 233° Southwest 405 466 36,000  Level Atlanta Center
03:20PM 32.9097 -85.2264 233° Southwest 392 451 36,000  Level Atlanta Center
03:21PM 32.8461 -85.3269 233° Southwest 392 451 36,000  Level Atlanta Center
03:22PM 32.7803 -85.4297 233° Southwest 392 451 36,000  Level Atlanta Center
03:23PM 32.7164 -85.5325 234° Southwest 392 451 36,000  Level Atlanta Center
03:24PM 32.6525 -85.6350 234° Southwest 387 445 36,000  Level Atlanta Center
03:25PM 32.5908 -85.7375 234° Southwest 387 445 36,000  Level Atlanta Center
03:26PM 32.5267 -85.8422 234° Southwest 392 451 36,000  Level Atlanta Center
03:27PM 32.4561 -85.9467 231° Southwest 399 459 36,000  Level Atlanta Center
03:28PM 32.3919 -86.0486 233° Southwest 399 459 36,000  Level Atlanta Center
03:29PM 32.3275 -86.1528 234° Southwest 399 459 36,000  Level Atlanta Center
03:30PM 32.2589 -86.2567 232° Southwest 399 459 36,000  Level Atlanta Center
03:31PM 32.1900 -86.3703 234° Southwest 404 465 36,000  Level Atlanta Center
03:32PM 32.1342 -86.4572 233° Southwest 397 457 36,000  Level Atlanta Center
03:33PM 32.0614 -86.5533 228° Southwest 392 451 36,000  Level Atlanta Center
03:34PM 31.9944 -86.6494 231° Southwest 392 451 36,000  Level Atlanta Center
03:35PM 31.9108 -86.7544 227° Southwest 398 458 36,000  Level Atlanta Center
03:36PM 31.8419 -86.8528 231° Southwest 398 458 36,000  Level Atlanta Center
03:37PM 31.7708 -86.9483 229° Southwest 398 458 36,000  Level Atlanta Center
03:39PM 31.6278 -87.1406 229° Southwest 388 447 36,000  Level Houston Center
03:40PM 31.5581 -87.2381 230° Southwest 389 448 36,000  Level Houston Center
03:41PM 31.4878 -87.3347 230° Southwest 390 449 36,000  Level Houston Center
03:42PM 31.4169 -87.4297 229° Southwest 388 447 36,000  Level Houston Center
03:43PM 31.3472 -87.5267 230° Southwest 388 447 36,000  Level Houston Center
03:44PM 31.2761 -87.6211 229° Southwest 387 445 36,000  Level Houston Center
03:45PM 31.2008 -87.7231 229° Southwest 387 445 36,000  Level Houston Center
03:46PM 31.1317 -87.8211 231° Southwest 389 448 36,000  Level Houston Center
03:47PM 31.0822 -87.9633 248° West 394 453 36,000  Level Houston Center
03:48PM 31.0419 -88.0806 248° West 391 450 36,000  Level Houston Center
03:49PM 31.0006 -88.1997 248° West 397 457 36,000  Level Houston Center
03:50PM 30.9597 -88.3167 248° West 393 452 36,000  Level Houston Center
03:51PM 30.9197 -88.4361 249° West 393 452 36,000  Level Houston Center
03:52PM 30.8792 -88.5528 248° West 389 448 36,000  Level Houston Center
03:53PM 30.8375 -88.6728 248° West 389 448 36,000  Level Houston Center
03:54PM 30.7883 -88.8131 248° West 389 448 36,000  Level Houston Center
03:55PM 30.7481 -88.9303 248° West 389 448 36,000  Level Houston Center
03:56PM 30.7092 -89.0425 248° West 389 448 36,000  Level Houston Center
03:57PM 30.6692 -89.1589 248° West 388 447 36,000  Level Houston Center
03:58PM 30.6289 -89.2733 248° West 384 442 36,000  Level Houston Center
03:59PM 30.5806 -89.4117 248° West 384 442 36,000  Level Houston Center
04:00PM 30.5406 -89.5261 248° West 384 442 36,000  Level Houston Center
04:01PM 30.5014 -89.6400 248° West 382 440 36,000  Level Houston Center
04:02PM 30.4614 -89.7550 248° West 388 447 36,000  Level Houston Center
04:03PM 30.4125 -89.8933 248° West 421 484 36,000  Level Houston Center
04:04PM 30.3708 -90.0025 246° West 392 451 36,000  Level Houston Center
04:06PM 30.3300 -90.1156 247° West 385 443 36,000  Level Houston Center
04:07PM 30.2878 -90.2303 247° West 389 448 36,000  Level Houston Center
04:08PM 30.2464 -90.3428 247° West 384 442 36,000  Level Houston Center
04:09PM 30.1969 -90.4800 247° West 386 444 36,000  Level Houston Center
04:10PM 30.1550 -90.5939 247° West 387 445 36,000  Level Houston Center
04:11PM 30.1133 -90.7078 247° West 386 444 36,000  Level Houston Center
04:12PM 30.0714 -90.8228 247° West 388 447 36,000  Level Houston Center
04:13PM 30.0294 -90.9375 247° West 389 448 36,000  Level Houston Center
04:14PM 29.9944 -91.0817 254° West 391 450 36,000  Level Houston Center
04:15PM 29.9642 -91.2019 254° West 391 450 36,000  Level Houston Center
04:16PM 29.9353 -91.3225 255° West 391 450 36,000  Level Houston Center
04:17PM 29.9042 -91.4419 253° West 391 450 36,000  Level Houston Center
04:18PM 29.8761 -91.5606 255° West 386 444 36,000  Level Houston Center
04:19PM 29.8467 -91.6781 254° West 383 441 36,000  Level Houston Center
04:20PM 29.8147 -91.8008 253° West 381 438 36,000  Level Houston Center
04:21PM 29.7786 -91.9439 254° West 386 444 36,000  Level Houston Center
04:22PM 29.7478 -92.0611 253° West 384 442 36,000  Level Houston Center
04:23PM 29.7186 -92.1792 254° West 384 442 36,000  Level Houston Center
04:24PM 29.6892 -92.2964 254° West 382 440 36,000  Level Houston Center
04:25PM 29.6578 -92.4136 253° West 383 441 36,000  Level Houston Center
04:26PM 29.6283 -92.5306 254° West 382 440 36,000  Level Houston Center
04:27PM 29.5914 -92.6703 253° West 381 438 36,000  Level Houston Center
04:28PM 29.5603 -92.7872 253° West 382 440 36,000  Level Houston Center
04:29PM 29.5300 -92.9047 254° West 384 442 36,000 -720 Level Houston Center
04:30PM 29.4994 -93.0219 253° West 385 443 34,600 -1,740 Descending Houston Center
04:31PM 29.4883 -93.1458 264° West 394 453 32,500 -2,040 Descending Houston Center
04:32PM 29.4922 -93.2714 272° West 393 452 30,500 -2,040 Descending Houston Center
04:33PM 29.4975 -93.3989 273° West 399 459 28,300 -2,280 Descending Houston Center
04:35PM 29.5047 -93.5567 273° West 410 472 25,800 -2,280 Descending Houston Center
04:36PM 29.5094 -93.6914 272° West 417 480 23,600 -2,160 Descending Houston Center
04:37PM 29.5153 -93.8214 273° West 411 473 21,400 -2,100 Descending Houston Center
04:38PM 29.5192 -93.9472 272° West 400 460 19,300 -2,160 Descending Houston Center
04:39PM 29.5247 -94.1036 272° West 385 443 16,600 -2,160 Descending Houston Center
04:40PM 29.5283 -94.2061 272° West 380 437 14,900 -1,740 Descending Houston Center
04:41PM 29.5328 -94.3094 273° West 334 384 13,300 -1,200 Descending Houston Center
04:42PM 29.5628 -94.4072 289° West 332 382 12,500 -1,260 Descending Houston Center
04:43PM 29.5994 -94.5008 294° West 326 375 10,800 -1,680 Descending Houston Center
04:44PM 29.6389 -94.5961 295° West 269 310 9,100 -1,620 Descending Houston Center
04:45PM 29.6833 -94.6650 307° West 247 284 7,600 -1,500 Descending Houston Center
04:46PM 29.7372 -94.7208 318° Northwest 265 305 6,100 -1,260 Descending Houston Center
04:47PM 29.7892 -94.7792 316° Northwest 262 302 5,100 -900 Descending Houston Center
04:48PM 29.8383 -94.8356 315° West 260 299 4,200 -660 Descending Houston Center
04:49PM 29.8894 -94.9064 310° West 256 295 3,800 -600 Descending Houston Center
04:50PM 29.9175 -94.9825 293° West 260 299 3,100 -540 Descending Houston Center
04:51PM 29.9478 -95.0558 295° West 253 291 2,700 -600 Descending Houston Center
04:52PM 29.9633 -95.1336 283° West 260 299 1,900 -840 Descending Houston Center